createdAt,value
2022-08-07T00:00:40.147Z,98904.88
2022-08-07T00:03:08.793Z,98901.38
2022-08-07T00:05:36.294Z,98904.50
2022-08-07T00:08:04.926Z,98902.25
2022-08-07T00:10:31.919Z,98909.03
2022-08-07T00:13:09.637Z,98903.56
2022-08-07T00:15:51.369Z,98895.34
2022-08-07T00:18:24.609Z,98902.53
2022-08-07T00:20:56.799Z,98889.72
2022-08-07T00:23:24.298Z,98902.84
2022-08-07T00:26:00.276Z,98891.72
2022-08-07T00:28:33.619Z,98892.31
2022-08-07T00:31:06.214Z,98886.41
2022-08-07T00:33:40.312Z,98894.97
2022-08-07T00:36:08.328Z,98894.97
2022-08-07T00:38:36.739Z,98894.97
2022-08-07T00:41:10.118Z,98890.69
2022-08-07T00:44:01.924Z,98885.63
2022-08-07T00:46:28.071Z,98894.13
2022-08-07T00:48:54.558Z,98884.88
2022-08-07T00:51:21.633Z,98885.91
2022-08-07T00:53:50.786Z,98882.84
2022-08-07T00:56:22.924Z,98888.53
2022-08-07T00:58:49.693Z,98893.72
2022-08-07T01:01:18.503Z,98887.16
2022-08-07T01:03:56.379Z,98886.00
2022-08-07T01:06:28.058Z,98879.53
2022-08-07T01:08:55.668Z,98877.88
2022-08-07T01:12:09.100Z,98885.00
2022-08-07T01:14:09.772Z,98882.88
2022-08-07T01:16:37.129Z,98872.50
2022-08-07T01:19:18.525Z,98879.22
2022-08-07T01:21:48.036Z,98876.56
2022-08-07T01:24:18.773Z,98870.84
2022-08-07T01:26:52.022Z,98872.50
2022-08-07T01:29:19.647Z,98875.56
2022-08-07T01:31:48.262Z,98883.47
2022-08-07T01:34:15.633Z,98876.44
2022-08-07T01:36:44.129Z,98875.66
2022-08-07T01:39:11.276Z,98864.78
2022-08-07T01:41:40.878Z,98873.44
2022-08-07T01:44:26.122Z,98873.16
2022-08-07T01:46:53.168Z,98877.06
2022-08-07T01:49:21.513Z,98876.97
2022-08-07T01:52:03.912Z,98879.72
2022-08-07T01:54:36.967Z,98872.44
2022-08-07T01:57:24.744Z,98874.38
2022-08-07T01:59:57.456Z,98883.13
2022-08-07T02:02:33.011Z,98884.34
2022-08-07T02:05:47.751Z,98881.06
2022-08-07T02:08:17.263Z,98877.81
2022-08-07T02:10:55.036Z,98877.25
2022-08-07T02:13:27.586Z,98878.69
2022-08-07T02:16:11.998Z,98881.09
2022-08-07T02:18:46.811Z,98884.94
2022-08-07T02:21:16.362Z,98880.28
2022-08-07T02:23:44.978Z,98873.47
2022-08-07T02:26:33.960Z,98879.75
2022-08-07T02:29:02.290Z,98871.31
2022-08-07T02:31:29.636Z,98869.44
2022-08-07T02:34:02.956Z,98868.97
2022-08-07T02:36:33.883Z,98873.63
2022-08-07T02:39:16.615Z,98874.44
2022-08-07T02:41:50.530Z,98875.81
2022-08-07T02:44:18.258Z,98874.94
2022-08-07T02:46:52.718Z,98873.84
2022-08-07T02:49:32.796Z,98869.19
2022-08-07T02:52:12.987Z,98871.44
2022-08-07T02:54:42.782Z,98872.84
2022-08-07T02:57:14.255Z,98870.69
2022-08-07T03:00:00.798Z,98874.78
2022-08-07T03:02:28.243Z,98871.00
2022-08-07T03:04:56.357Z,98871.56
2022-08-07T03:07:58.991Z,98869.34
2022-08-07T03:10:11.805Z,98865.81
2022-08-07T03:12:41.617Z,98873.72
2022-08-07T03:15:09.327Z,98866.69
2022-08-07T03:17:53.640Z,98867.25
2022-08-07T03:20:21.776Z,98868.34
2022-08-07T03:22:50.570Z,98867.53
2022-08-07T03:25:20.935Z,98863.47
2022-08-07T03:28:08.797Z,98862.91
2022-08-07T03:30:36.583Z,98862.91
2022-08-07T03:33:07.955Z,98867.00
2022-08-07T03:35:43.494Z,98867.25
2022-08-07T03:38:17.893Z,98863.53
2022-08-07T03:40:54.046Z,98861.91
2022-08-07T03:43:26.658Z,98868.97
2022-08-07T03:45:59.614Z,98857.00
2022-08-07T03:48:26.994Z,98856.19
2022-08-07T03:50:58.001Z,98856.75
2022-08-07T03:53:50.076Z,98857.00
2022-08-07T03:56:14.400Z,98850.50
2022-08-07T03:59:10.156Z,98851.56
2022-08-07T04:01:30.029Z,98854.28
2022-08-07T04:03:59.750Z,98859.44
2022-08-07T04:06:36.125Z,98858.91
2022-08-07T04:09:05.646Z,98862.47
2022-08-07T04:12:26.214Z,98860.31
2022-08-07T04:14:38.715Z,98863.53
2022-08-07T04:17:20.376Z,98869.53
2022-08-07T04:19:54.917Z,98871.75
2022-08-07T04:22:27.657Z,98878.78
2022-08-07T04:24:58.189Z,98875.53
2022-08-07T04:27:26.642Z,98887.47
2022-08-07T04:30:02.113Z,98890.19
2022-08-07T04:32:34.717Z,98888.03
2022-08-07T04:35:07.111Z,98896.41
2022-08-07T04:38:01.072Z,98899.41
2022-08-07T04:40:22.693Z,98904.31
2022-08-07T04:43:01.202Z,98898.88
2022-08-07T04:45:57.609Z,98911.88
2022-08-07T04:48:21.070Z,98915.16
2022-08-07T04:51:02.280Z,98917.31
2022-08-07T04:54:01.568Z,98926.28
2022-08-07T04:58:10.971Z,98926.28
2022-08-07T05:00:11.430Z,98922.19
2022-08-07T05:02:44.593Z,98927.06
2022-08-07T05:05:52.661Z,98918.09
2022-08-07T05:09:00.147Z,98920.00
2022-08-07T05:11:56.778Z,98911.81
2022-08-07T05:14:55.035Z,98915.13
2022-08-07T05:17:52.994Z,98912.63
2022-08-07T05:20:17.845Z,98911.00
2022-08-07T05:22:46.465Z,98905.00
2022-08-07T05:25:26.296Z,98907.44
2022-08-07T05:28:20.874Z,98903.63
2022-08-07T05:30:52.476Z,98909.59
2022-08-07T05:33:20.666Z,98907.44
2022-08-07T05:35:50.651Z,98907.69
2022-08-07T05:38:59.383Z,98894.28
2022-08-07T05:41:12.426Z,98909.75
2022-08-07T05:44:06.743Z,98913.81
2022-08-07T05:46:30.977Z,98911.91
2022-08-07T05:48:59.520Z,98917.22
2022-08-07T05:51:26.344Z,98913.81
2022-08-07T05:54:13.308Z,98910.22
2022-08-07T05:56:47.300Z,98916.78
2022-08-07T05:59:19.522Z,98923.41
2022-08-07T06:01:49.249Z,98917.72
2022-08-07T06:04:19.550Z,98923.44
2022-08-07T06:06:47.569Z,98917.06
2022-08-07T06:09:16.846Z,98915.81
2022-08-07T06:11:44.098Z,98916.75
2022-08-07T06:14:21.270Z,98919.81
2022-08-07T06:16:56.301Z,98921.47
2022-08-07T06:19:52.253Z,98921.28
2022-08-07T06:22:22.630Z,98924.44
2022-08-07T06:24:58.531Z,98931.16
2022-08-07T06:27:59.926Z,98923.34
2022-08-07T06:30:31.926Z,98922.53
2022-08-07T06:33:01.998Z,98919.81
2022-08-07T06:35:45.641Z,98918.97
2022-08-07T06:38:19.859Z,98919.72
2022-08-07T06:40:50.929Z,98917.03
2022-08-07T06:43:23.642Z,98910.53
2022-08-07T06:45:50.841Z,98916.75
2022-08-07T06:48:25.075Z,98914.50
2022-08-07T06:50:53.139Z,98919.03
2022-08-07T06:55:30.027Z,98913.66
2022-08-07T06:56:15.253Z,98916.66
2022-08-07T07:00:14.775Z,98909.56
2022-08-07T07:01:33.287Z,98917.19
2022-08-07T07:04:32.138Z,98913.31
2022-08-07T07:07:01.113Z,98913.00
2022-08-07T07:09:31.222Z,98914.81
2022-08-07T07:12:16.576Z,98912.88
2022-08-07T07:14:58.124Z,98922.44
2022-08-07T07:17:50.600Z,98907.50
2022-08-07T07:20:29.645Z,98911.81
2022-08-07T07:24:08.527Z,98911.06
2022-08-07T07:26:35.896Z,98906.78
2022-08-07T07:29:38.464Z,98902.06
2022-08-07T07:31:44.510Z,98902.44
2022-08-07T07:34:16.950Z,98904.78
2022-08-07T07:36:47.987Z,98899.25
2022-08-07T07:39:22.609Z,98903.06
2022-08-07T07:42:13.250Z,98902.41
2022-08-07T07:44:41.993Z,98891.94
2022-08-07T07:47:22.965Z,98894.63
2022-08-07T07:50:36.106Z,98895.25
2022-08-07T07:52:41.004Z,98891.22
2022-08-07T07:55:10.952Z,98895.25
2022-08-07T07:57:51.882Z,98889.56
2022-08-07T08:00:29.696Z,98899.25
2022-08-07T08:03:08.276Z,98892.91
2022-08-07T08:05:51.156Z,98888.22
2022-08-07T08:08:35.417Z,98890.78
2022-08-07T08:11:09.321Z,98891.66
2022-08-07T08:13:54.549Z,98882.78
2022-08-07T08:18:36.530Z,98880.16
2022-08-07T08:20:18.886Z,98886.06
2022-08-07T08:22:32.558Z,98876.91
2022-08-07T08:25:33.024Z,98875.19
2022-08-07T08:28:11.944Z,98877.59
2022-08-07T08:30:51.471Z,98876.22
2022-08-07T08:33:28.880Z,98874.00
2022-08-07T08:36:01.619Z,98866.88
2022-08-07T08:38:40.488Z,98870.38
2022-08-07T08:41:57.674Z,98870.06
2022-08-07T08:44:57.562Z,98868.25
2022-08-07T08:47:52.087Z,98862.84
2022-08-07T08:50:35.285Z,98859.00
2022-08-07T08:53:06.285Z,98868.16
2022-08-07T08:55:55.556Z,98872.00
2022-08-07T08:58:58.047Z,98862.91
2022-08-07T09:01:50.350Z,98859.47
2022-08-07T09:04:36.753Z,98854.59
2022-08-07T09:07:16.917Z,98848.94
2022-08-07T09:09:59.957Z,98850.41
2022-08-07T09:12:53.704Z,98845.63
2022-08-07T09:16:24.533Z,98851.16
2022-08-07T09:19:51.504Z,98852.56
2022-08-07T09:24:28.666Z,98842.47
2022-08-07T09:25:17.234Z,98855.59
2022-08-07T09:28:05.046Z,98848.69
2022-08-07T09:30:52.875Z,98847.56
2022-08-07T09:33:58.021Z,98847.66
2022-08-07T09:36:35.725Z,98841.63
2022-08-07T09:39:53.144Z,98839.91
2022-08-07T09:42:33.066Z,98843.09
2022-08-07T09:47:20.398Z,98831.19
2022-08-07T09:48:55.983Z,98843.50
2022-08-07T09:52:16.699Z,98843.19
2022-08-07T09:54:46.758Z,98838.38
2022-08-07T09:57:31.647Z,98824.81
2022-08-07T10:00:08.640Z,98839.22
2022-08-07T10:04:06.373Z,98828.50
2022-08-07T10:06:24.501Z,98836.91
2022-08-07T10:09:15.356Z,98834.72
2022-08-07T10:12:18.183Z,98824.94
2022-08-07T10:15:18.560Z,98821.38
2022-08-07T10:18:02.520Z,98818.53
2022-08-07T10:21:00.624Z,98814.41
2022-08-07T10:24:06.582Z,98816.63
2022-08-07T10:26:33.347Z,98824.16
2022-08-07T10:29:25.654Z,98799.53
2022-08-07T10:32:31.597Z,98801.66
2022-08-07T10:35:55.783Z,98799.59
2022-08-07T10:38:49.017Z,98793.88
2022-08-07T10:41:47.070Z,98800.34
2022-08-07T10:44:52.450Z,98786.88
2022-08-07T10:47:53.906Z,98788.34
2022-08-07T10:50:36.497Z,98781.09
2022-08-07T10:53:44.551Z,98785.84
2022-08-07T10:56:32.916Z,98781.94
2022-08-07T10:59:45.349Z,98777.56
2022-08-07T11:02:33.986Z,98775.25
2022-08-07T11:05:35.511Z,98775.47
2022-08-07T11:08:45.783Z,98766.44
2022-08-07T11:11:20.234Z,98765.84
2022-08-07T11:14:45.535Z,98772.06
2022-08-07T11:17:01.831Z,98759.81
2022-08-07T11:19:50.215Z,98760.25
2022-08-07T11:22:44.077Z,98765.91
2022-08-07T11:25:42.560Z,98754.91
2022-08-07T11:28:21.305Z,98749.34
2022-08-07T11:30:51.296Z,98741.63
2022-08-07T11:34:00.051Z,98744.78
2022-08-07T11:36:49.628Z,98742.94
2022-08-07T11:40:00.156Z,98739.63
2022-08-07T11:42:54.376Z,98729.75
2022-08-07T11:45:35.396Z,98731.66
2022-08-07T11:48:30.991Z,98731.34
2022-08-07T11:51:41.733Z,98739.00
2022-08-07T11:54:31.506Z,98726.19
2022-08-07T11:57:59.988Z,98738.13
2022-08-07T12:00:28.322Z,98737.97
2022-08-07T12:03:41.441Z,98732.00
2022-08-07T12:06:39.009Z,98737.53
2022-08-07T12:09:16.469Z,98737.56
2022-08-07T12:12:12.432Z,98737.53
2022-08-07T12:14:55.587Z,98727.69
2022-08-07T12:17:33.767Z,98732.25
2022-08-07T12:20:12.843Z,98717.59
2022-08-07T12:23:08.984Z,98728.16
2022-08-07T12:26:23.485Z,98713.75
2022-08-07T12:29:07.182Z,98718.03
2022-08-07T12:31:53.079Z,98716.69
2022-08-07T12:34:34.553Z,98705.44
2022-08-07T12:37:08.787Z,98707.53
2022-08-07T12:39:51.275Z,98707.44
2022-08-07T12:42:28.131Z,98701.13
2022-08-07T12:44:58.066Z,98700.94
2022-08-07T12:47:52.182Z,98703.34
2022-08-07T12:50:49.314Z,98710.25
2022-08-07T12:53:22.518Z,98700.50
2022-08-07T12:56:05.717Z,98689.59
2022-08-07T12:58:40.058Z,98698.06
2022-08-07T13:01:19.515Z,98690.34
2022-08-07T13:04:18.933Z,98683.56
2022-08-07T13:08:11.547Z,98680.81
2022-08-07T13:10:39.744Z,98675.97
2022-08-07T13:13:48.017Z,98688.09
2022-08-07T13:16:07.453Z,98683.59
2022-08-07T13:18:44.645Z,98677.81
2022-08-07T13:21:50.260Z,98677.19
2022-08-07T13:24:52.398Z,98670.34
2022-08-07T13:28:05.570Z,98672.59
2022-08-07T13:30:19.303Z,98657.72
2022-08-07T13:34:14.767Z,98665.78
2022-08-07T13:36:35.372Z,98655.81
2022-08-07T13:39:49.004Z,98662.94
2022-08-07T13:42:10.500Z,98655.53
2022-08-07T13:44:39.492Z,98655.88
2022-08-07T13:47:10.589Z,98654.31
2022-08-07T13:50:33.799Z,98656.13
2022-08-07T13:52:41.000Z,98656.88
2022-08-07T13:55:26.405Z,98650.84
2022-08-07T13:58:27.632Z,98648.63
2022-08-07T14:01:00.941Z,98643.84
2022-08-07T14:04:09.617Z,98635.91
2022-08-07T14:06:36.978Z,98640.66
2022-08-07T14:09:07.284Z,98628.94
2022-08-07T14:11:53.567Z,98633.44
2022-08-07T14:14:33.280Z,98636.28
2022-08-07T14:17:13.023Z,98623.09
2022-08-07T14:20:40.778Z,98618.22
2022-08-07T14:22:48.564Z,98614.34
2022-08-07T14:25:16.275Z,98619.03
2022-08-07T14:28:10.309Z,98616.47
2022-08-07T14:30:40.743Z,98626.84
2022-08-07T14:33:09.198Z,98620.06
2022-08-07T14:35:44.852Z,98619.28
2022-08-07T14:38:30.551Z,98611.72
2022-08-07T14:44:09.941Z,98606.13
2022-08-07T14:46:51.773Z,98608.47
2022-08-07T14:49:57.479Z,98613.47
2022-08-07T14:55:11.144Z,98601.09
2022-08-07T14:57:54.590Z,98610.81
2022-08-07T15:00:36.555Z,98595.69
2022-08-07T15:03:17.466Z,98596.00
2022-08-07T15:05:55.234Z,98599.22
2022-08-07T15:08:34.893Z,98598.88
2022-08-07T15:11:18.275Z,98580.78
2022-08-07T15:14:10.182Z,98598.78
2022-08-07T15:16:54.934Z,98594.97
2022-08-07T15:20:31.468Z,98601.13
2022-08-07T15:22:29.266Z,98591.19
2022-08-07T15:28:32.995Z,98606.63
2022-08-07T15:31:05.218Z,98602.63
2022-08-07T15:39:12.403Z,98587.41
2022-08-07T15:44:52.022Z,98583.53
2022-08-07T15:48:01.382Z,98581.47
2022-08-07T15:50:37.741Z,98581.16
2022-08-07T15:53:14.937Z,98581.69
2022-08-07T15:55:53.654Z,98591.53
2022-08-07T15:58:38.726Z,98587.00
2022-08-07T16:01:12.391Z,98582.81
2022-08-07T16:03:46.638Z,98580.19
2022-08-07T16:06:14.990Z,98579.28
2022-08-07T16:08:45.783Z,98578.59
2022-08-07T16:11:42.249Z,98574.00
2022-08-07T16:14:19.288Z,98576.66
2022-08-07T16:18:02.062Z,98571.97
2022-08-07T16:20:33.318Z,98570.84
2022-08-07T16:23:54.530Z,98570.72
2022-08-07T16:26:30.722Z,98577.19
2022-08-07T16:30:11.879Z,98568.88
2022-08-07T16:32:25.470Z,98574.00
2022-08-07T16:35:52.385Z,98565.19
2022-08-07T16:38:29.582Z,98573.06
2022-08-07T16:41:15.710Z,98575.88
2022-08-07T16:45:04.045Z,98579.16
2022-08-07T16:47:56.621Z,98584.31
2022-08-07T16:51:07.368Z,98581.69
2022-08-07T16:54:02.639Z,98593.25
2022-08-07T16:57:01.365Z,98597.38
2022-08-07T16:59:46.962Z,98609.31
2022-08-07T17:02:53.564Z,98604.41
2022-08-07T17:06:29.001Z,98595.28
2022-08-07T17:08:51.238Z,98586.84
2022-08-07T17:12:01.528Z,98588.97
2022-08-07T17:14:31.013Z,98586.28
2022-08-07T17:17:00.990Z,98586.38
2022-08-07T17:20:02.179Z,98597.56
2022-08-07T17:22:38.824Z,98592.34
2022-08-07T17:25:20.188Z,98601.38
2022-08-07T17:28:17.685Z,98602.03
2022-08-07T17:31:00.736Z,98610.41
2022-08-07T17:34:15.514Z,98614.19
2022-08-07T17:36:57.856Z,98617.28
2022-08-07T17:39:58.834Z,98624.09
2022-08-07T17:42:35.588Z,98618.84
2022-08-07T17:45:27.393Z,98629.19
2022-08-07T17:48:02.613Z,98638.41
2022-08-07T17:50:42.344Z,98635.66
2022-08-07T17:53:55.647Z,98642.31
2022-08-07T17:56:25.931Z,98634.22
2022-08-07T17:58:56.867Z,98640.88
2022-08-07T18:01:37.417Z,98644.78
2022-08-07T18:04:30.988Z,98638.00
2022-08-07T18:07:28.463Z,98637.91
2022-08-07T18:12:07.027Z,98641.22
2022-08-07T18:13:40.670Z,98631.44
2022-08-07T18:16:13.606Z,98633.50
2022-08-07T18:21:12.716Z,98641.69
2022-08-07T18:22:26.235Z,98644.91
2022-08-07T18:25:18.797Z,98643.19
2022-08-07T18:27:58.053Z,98651.47
2022-08-07T18:30:36.872Z,98647.63
2022-08-07T18:33:22.253Z,98655.41
2022-08-07T18:36:33.028Z,98664.94
2022-08-07T18:40:05.067Z,98665.91
2022-08-07T18:42:29.208Z,98681.63
2022-08-07T18:45:44.818Z,98679.44
2022-08-07T18:48:00.700Z,98687.31
2022-08-07T18:50:45.671Z,98694.78
2022-08-07T18:53:43.304Z,98702.84
2022-08-07T18:56:58.283Z,98700.56
2022-08-07T18:59:47.782Z,98705.31
2022-08-07T19:02:51.301Z,98722.53
2022-08-07T19:06:03.992Z,98715.09
2022-08-07T19:08:33.986Z,98725.00
2022-08-07T19:11:35.983Z,98730.50
2022-08-07T19:14:16.897Z,98724.22
2022-08-07T19:17:05.612Z,98729.91
2022-08-07T19:19:44.163Z,98734.25
2022-08-07T19:22:40.358Z,98735.91
2022-08-07T19:26:23.663Z,98735.56
2022-08-07T19:28:29.855Z,98727.03
2022-08-07T19:31:41.499Z,98736.06
2022-08-07T19:34:02.532Z,98737.50
2022-08-07T19:36:34.360Z,98743.47
2022-08-07T19:39:02.104Z,98748.81
2022-08-07T19:42:05.750Z,98748.81
2022-08-07T19:44:37.940Z,98757.06
2022-08-07T19:47:11.764Z,98753.19
2022-08-07T19:49:57.581Z,98745.28
2022-08-07T19:52:28.055Z,98749.63
2022-08-07T19:54:57.252Z,98755.25
2022-08-07T19:58:00.478Z,98752.88
2022-08-07T20:00:28.925Z,98745.72
2022-08-07T20:03:35.646Z,98749.63
2022-08-07T20:06:01.136Z,98752.69
2022-08-07T20:08:31.765Z,98757.06
2022-08-07T20:11:04.017Z,98747.19
2022-08-07T20:13:49.806Z,98745.41
2022-08-07T20:16:35.059Z,98747.03
2022-08-07T20:19:05.844Z,98737.97
2022-08-07T20:21:41.593Z,98745.25
2022-08-07T20:24:18.568Z,98739.28
2022-08-07T20:26:52.166Z,98733.81
2022-08-07T20:29:49.574Z,98745.31
2022-08-07T20:32:22.280Z,98742.72
2022-08-07T20:34:55.954Z,98749.34
2022-08-07T20:37:34.124Z,98751.16
2022-08-07T20:40:33.422Z,98743.22
2022-08-07T20:42:57.231Z,98743.88
2022-08-07T20:45:33.807Z,98746.28
2022-08-07T20:48:28.541Z,98751.09
2022-08-07T20:51:00.282Z,98753.50
2022-08-07T20:54:03.370Z,98755.75
2022-08-07T20:56:16.528Z,98755.59
2022-08-07T20:58:50.223Z,98756.38
2022-08-07T21:01:20.754Z,98758.97
2022-08-07T21:04:19.437Z,98755.25
2022-08-07T21:06:53.170Z,98765.81
2022-08-07T21:09:24.254Z,98768.59
2022-08-07T21:11:57.047Z,98758.91
2022-08-07T21:14:33.480Z,98760.19
2022-08-07T21:18:00.903Z,98756.63
2022-08-07T21:20:04.608Z,98751.66
2022-08-07T21:22:39.479Z,98753.44
2022-08-07T21:25:20.853Z,98747.78
2022-08-07T21:28:13.695Z,98753.34
2022-08-07T21:30:47.232Z,98740.16
2022-08-07T21:33:41.139Z,98744.44
2022-08-07T21:36:31.916Z,98748.72
2022-08-07T21:39:45.494Z,98756.03
2022-08-07T21:42:48.599Z,98757.13
2022-08-07T21:46:08.265Z,98755.34
2022-08-07T21:48:38.476Z,98754.44
2022-08-07T21:51:31.990Z,98749.09
2022-08-07T21:54:35.923Z,98755.25
2022-08-07T21:57:51.959Z,98762.94
2022-08-07T22:00:25.146Z,98754.09
2022-08-07T22:03:05.604Z,98757.91
2022-08-07T22:05:46.017Z,98757.69
2022-08-07T22:08:19.900Z,98765.75
2022-08-07T22:10:54.726Z,98765.03
2022-08-07T22:13:51.261Z,98761.19
2022-08-07T22:16:38.482Z,98768.16
2022-08-07T22:19:42.314Z,98761.81
2022-08-07T22:22:20.767Z,98765.06
2022-08-07T22:25:08.190Z,98756.84
2022-08-07T22:28:20.103Z,98762.69
2022-08-07T22:30:58.541Z,98768.16
2022-08-07T22:33:53.002Z,98759.22
2022-08-07T22:36:42.708Z,98763.03
2022-08-07T22:39:23.407Z,98760.06
2022-08-07T22:42:03.680Z,98763.31
2022-08-07T22:44:59.017Z,98764.13
2022-08-07T22:47:55.273Z,98756.91
2022-08-07T22:50:59.302Z,98765.63
2022-08-07T22:54:05.503Z,98765.53
2022-08-07T22:56:46.088Z,98765.34
2022-08-07T22:59:52.055Z,98765.94
2022-08-07T23:02:43.596Z,98759.59
2022-08-07T23:06:10.026Z,98768.66
2022-08-07T23:08:47.820Z,98769.69
2022-08-07T23:11:28.038Z,98777.75
2022-08-07T23:14:17.344Z,98770.09
2022-08-07T23:16:55.936Z,98776.97
2022-08-07T23:20:02.844Z,98766.66
2022-08-07T23:22:42.521Z,98780.69
2022-08-07T23:25:36.929Z,98770.69
2022-08-07T23:28:22.287Z,98786.03
2022-08-07T23:31:11.262Z,98782.63
2022-08-07T23:34:35.434Z,98785.66
2022-08-07T23:37:20.437Z,98769.28
2022-08-07T23:40:10.489Z,98781.09
2022-08-07T23:42:57.653Z,98788.19
2022-08-07T23:46:01.291Z,98787.38
2022-08-07T23:48:27.369Z,98792.78
2022-08-07T23:52:55.936Z,98797.69
2022-08-07T23:54:04.030Z,98788.50
2022-08-07T23:56:54.434Z,98789.53
